• Join FlightAware (Why Join?)
  • Login
  • US Flag 
05:56PM EDT


 

Airport Tracker/Info


-or-


 

Live Flight TrackerFlight Track Log ✈ N96928 ✈ 06-Jul-2013 ✈ KHTO - KSWF

Flight Track Log - Related Links

Times and Time Zones

All times are in EDT time to prevent confusion due to time zone crossing. See the N96928 flight status page for this flight to view local times or setup timezone preferences in your user account.

Time Position Orientation Groundspeed Altitude Reporting Facility
EDT Latitude Longitude Course Direction KTS MPH feet Rate Location/Type
09:01PM 41.0000 -72.4167 270° West 67 77 3,500  Level New York TRACON
09:02PM 41.0000 -72.4333 270° West 66 76 4,000 480 Climbing New York TRACON
09:03PM 41.0000 -72.4667 270° West 67 77 4,500 420 Climbing New York TRACON
09:04PM 41.0167 -72.4833 323° Northwest 70 81 4,900 360 Climbing New York TRACON
09:05PM 41.0167 -72.5167 270° West 71 82 5,300 360 Climbing New York TRACON
09:06PM 41.0167 -72.5333 270° West 75 86 5,700 360 Climbing New York TRACON
09:07PM 41.0333 -72.5667 304° West 77 89 6,100 360 Climbing New York TRACON
09:08PM 41.0333 -72.5833 270° West 77 89 6,500 300 Climbing New York TRACON
09:09PM 41.0500 -72.6167 304° West 79 91 6,800 180 Climbing New York TRACON
09:10PM 41.0500 -72.6500 270° West 91 105 7,000 60 Climbing New York TRACON
09:11PM 41.0500 -72.6833 270° West 104 120 7,000  Level New York TRACON
09:12PM 41.0833 -72.7167 323° Northwest 108 124 7,000 -60 Level New York TRACON
09:13PM 41.1000 -72.7333 323° Northwest 109 125 6,900 -60 Descending New York TRACON
09:14PM 41.1167 -72.7667 304° West 107 123 6,900  Level New York TRACON
09:15PM 41.1333 -72.8000 304° West 111 128 6,900  Level New York TRACON
09:16PM 41.1667 -72.8167 339° North 109 125 6,900  Level New York TRACON
09:17PM 41.1833 -72.8500 304° West 114 131 6,900  Level New York TRACON
09:18PM 41.2000 -72.8833 304° West 108 124 6,900  Level New York TRACON
09:19PM 41.2333 -72.9167 323° Northwest 112 129 6,900  Level New York TRACON
09:20PM 41.2500 -72.9333 323° Northwest 110 127 6,900  Level New York TRACON
09:21PM 41.2667 -72.9667 304° West 114 131 7,000  Climbing New York TRACON
09:22PM 41.3000 -73.0000 323° Northwest 115 132 6,900  Descending New York TRACON
09:25PM 41.3544 -73.0789 313° West 110 127 7,000  Climbing Boston Center
09:26PM 41.3753 -73.1039 318° Northwest 117 135 7,000  Level Boston Center
09:27PM 41.3978 -73.1347 314° West 117 135 7,000 -60 Level Boston Center
09:28PM 41.4164 -73.1625 312° West 112 129 6,900  Descending Boston Center
09:29PM 41.4414 -73.1933 317° Northwest 112 129 7,000  Climbing Boston Center
09:30PM 41.4600 -73.2156 318° Northwest 112 129 6,900 -60 Descending Boston Center
09:31PM 41.4867 -73.2519 314° West 117 135 6,900  Level Boston Center
09:32PM 41.5053 -73.2744 318° Northwest 117 135 6,900  Level Boston Center
09:33PM 41.5364 -73.2886 341° North 107 123 6,900 -120 Level Boston Center
09:34PM 41.5636 -73.3003 342° North 107 123 6,700 -480 Descending Boston Center
09:35PM 41.6050 -73.3203 340° North 131 151 6,000 -420 Descending Boston Center
09:36PM 41.6361 -73.3317 345° North 147 169 5,900 -120 Descending Boston Center
09:38PM 41.6926 -73.3533 344° North  Level FlightAware Approximate
09:45PM 41.8995 -73.4391 263° West  Level FlightAware Approximate
09:46PM 41.8959 -73.4811 263° West  Level FlightAware Approximate
09:47PM 41.8923 -73.5230 263° West  Level FlightAware Approximate
09:48PM 41.8887 -73.5650 263° West  Level FlightAware Approximate
09:49PM 41.8851 -73.6070 263° West  Level FlightAware Approximate
09:50PM 41.8814 -73.6489 263° West  Level FlightAware Approximate
09:51PM 41.8778 -73.6909 263° West  Level FlightAware Approximate
09:52PM 41.8741 -73.7328 263° West  Level FlightAware Approximate
09:53PM 41.8704 -73.7748 263° West  Level FlightAware Approximate
09:54PM 41.8666 -73.8167 200° South  Level FlightAware Approximate
09:55PM 41.8371 -73.8314 200° South  Level FlightAware Approximate
09:56PM 41.8092 -73.8506 208° Southwest  Level FlightAware Approximate
09:57PM 41.7814 -73.8705 208° Southwest  Level FlightAware Approximate
09:58PM 41.7536 -73.8903 208° Southwest  Level FlightAware Approximate
09:59PM 41.7259 -73.9101 208° Southwest  Level FlightAware Approximate
10:00PM 41.7090 -73.9385 206° Southwest  Level FlightAware Approximate
10:01PM 41.6808 -73.9572 206° Southwest  Level FlightAware Approximate
10:02PM 41.6535 -73.9780 213° Southwest  Level FlightAware Approximate
10:03PM 41.6270 -74.0007 213° Southwest  Level FlightAware Approximate
10:04PM 41.6006 -74.0234 213° Southwest  Level FlightAware Approximate
10:05PM 41.5741 -74.0461 213° Southwest  Level FlightAware Approximate
10:06PM 41.5474 -74.0684 207° Southwest  Level FlightAware Approximate
10:07PM 41.5193 -74.0872 207° Southwest  Level FlightAware Approximate
10:08PM 41.5000 -74.1000 207° Southwest  Level FlightAware Approximate
10:09PM 41.5041 -74.1048 207° Southwest  Level Estimated
10:10PM 41.5000 -74.1000 207° Southwest  Level FlightAware Approximate
10:11PM 41.5041 -74.1048 207° Southwest  Level Estimated
10:12PM 41.5000 -74.1000 207° Southwest  Level FlightAware Approximate
10:13PM 41.5041 -74.1048 207° Southwest  Level Estimated
10:14PM 41.5000 -74.1000 207° Southwest  Level FlightAware Approximate
10:15PM 41.5041 -74.1048 207° Southwest  Level Estimated
10:16PM 41.5000 -74.1000 207° Southwest  Level FlightAware Approximate
10:17PM 41.5041 -74.1048 207° Southwest  Level Estimated
10:18PM 41.5000 -74.1000 207° Southwest  Level FlightAware Approximate
10:19PM 41.5041 -74.1048 207° Southwest  Level Estimated
10:20PM 41.5000 -74.1000 207° Southwest  Level FlightAware Approximate
10:21PM 41.5041 -74.1048 207° Southwest  Level Estimated
10:22PM 41.5000 -74.1000 207° Southwest  Level FlightAware Approximate
10:23PM 41.5041 -74.1048 207° Southwest  Level Estimated